Time;durP1;ratioP1;P1;durP2;ratioP2;P2;SDS_P1;SDS_P2;PMS_P1;PMS_P2;Temp;Humidity;BMP_temperature;BMP_pressure;BME280_temperature;BME280_humidity;BME280_pressure;Samples;Min_cycle;Max_cycle;Signal;HPM_P1;HPM_P2
2022/02/24 00:00:14;;;;;;;3.95;2.25;;;;;;;;;;5064012;28;20036;-56
2022/02/24 00:02:40;;;;;;;4.43;2.20;;;;;;;;;;5053855;28;20036;-55
2022/02/24 00:05:07;;;;;;;4.35;1.80;;;;;;;;;;5064690;28;20020;-56
2022/02/24 00:07:32;;;;;;;6.93;2.45;;;;;;;;;;5052107;28;20091;-57
2022/02/24 00:09:58;;;;;;;4.70;1.85;;;;;;;;;;5056314;28;20487;-56
2022/02/24 00:12:23;;;;;;;4.63;2.05;;;;;;;;;;5063016;28;20074;-56
2022/02/24 00:14:50;;;;;;;3.15;1.98;;;;;;;;;;5057819;28;20724;-56
2022/02/24 00:17:16;;;;;;;4.70;2.05;;;;;;;;;;5060423;28;20025;-56
2022/02/24 00:19:41;;;;;;;6.50;2.47;;;;;;;;;;5059161;28;20477;-56
2022/02/24 00:22:07;;;;;;;7.03;2.05;;;;;;;;;;5056906;28;20027;-55
2022/02/24 00:24:32;;;;;;;6.57;1.88;;;;;;;;;;5060892;28;20033;-56
2022/02/24 00:26:57;;;;;;;4.95;1.88;;;;;;;;;;5057316;28;20032;-55
2022/02/24 00:29:23;;;;;;;6.93;1.92;;;;;;;;;;5058926;28;20032;-57
2022/02/24 00:31:48;;;;;;;5.88;2.15;;;;;;;;;;5058613;28;20028;-56
2022/02/24 00:34:15;;;;;;;7.55;2.35;;;;;;;;;;5056827;28;20052;-56
2022/02/24 00:36:41;;;;;;;6.63;2.10;;;;;;;;;;5059971;28;20060;-56
2022/02/24 00:39:06;;;;;;;3.42;1.85;;;;;;;;;;5063695;28;20035;-57
2022/02/24 00:41:32;;;;;;;4.22;2.20;;;;;;;;;;5064061;28;20021;-56
2022/02/24 00:43:57;;;;;;;3.58;1.70;;;;;;;;;;5061039;28;20276;-56
2022/02/24 00:46:23;;;;;;;3.63;1.65;;;;;;;;;;5060943;28;20166;-56
2022/02/24 00:48:48;;;;;;;3.17;1.88;;;;;;;;;;5059466;28;20496;-56
2022/02/24 00:51:14;;;;;;;4.82;1.85;;;;;;;;;;5056164;28;20029;-59
2022/02/24 00:53:41;;;;;;;5.05;2.40;;;;;;;;;;5062634;28;20107;-56
2022/02/24 00:56:08;;;;;;;5.13;2.05;;;;;;;;;;5057008;28;20025;-56
2022/02/24 00:58:34;;;;;;;7.50;2.17;;;;;;;;;;5061752;28;20020;-56
2022/02/24 01:00:59;;;;;;;4.80;2.03;;;;;;;;;;5059700;28;20472;-56
2022/02/24 01:03:25;;;;;;;3.95;2.00;;;;;;;;;;5051500;28;20028;-57
2022/02/24 01:05:50;;;;;;;4.75;2.30;;;;;;;;;;5056017;28;20423;-57
2022/02/24 01:08:15;;;;;;;3.90;1.90;;;;;;;;;;5051851;28;20025;-56
2022/02/24 01:10:41;;;;;;;4.20;2.05;;;;;;;;;;5055175;28;20021;-56
2022/02/24 01:13:06;;;;;;;3.97;1.95;;;;;;;;;;5059842;28;20025;-56
2022/02/24 01:15:32;;;;;;;4.60;1.70;;;;;;;;;;5059608;28;20036;-56
2022/02/24 01:17:57;;;;;;;3.08;1.83;;;;;;;;;;5053945;28;20324;-55
2022/02/24 01:20:23;;;;;;;3.35;2.08;;;;;;;;;;5060860;28;20028;-57
2022/02/24 01:22:49;;;;;;;5.63;1.90;;;;;;;;;;5056585;28;20036;-56
2022/02/24 01:25:18;;;;;;;6.57;2.00;;;;;;;;;;5055735;28;20483;-57
2022/02/24 01:27:44;;;;;;;5.15;2.05;;;;;;;;;;5057811;28;20039;-55
2022/02/24 01:30:10;;;;;;;3.35;1.83;;;;;;;;;;5056330;28;20449;-56
2022/02/24 01:32:35;;;;;;;4.63;1.77;;;;;;;;;;5058773;28;20028;-56
2022/02/24 01:35:01;;;;;;;4.70;1.95;;;;;;;;;;5067876;28;20030;-55
2022/02/24 01:37:27;;;;;;;3.55;2.10;;;;;;;;;;5064149;28;20036;-55
2022/02/24 01:39:53;;;;;;;4.22;2.20;;;;;;;;;;5068457;28;20039;-55
2022/02/24 01:42:19;;;;;;;8.50;2.80;;;;;;;;;;5060524;28;20483;-55
2022/02/24 01:44:46;;;;;;;3.45;2.03;;;;;;;;;;5057553;28;20029;-55
2022/02/24 01:47:12;;;;;;;3.47;2.10;;;;;;;;;;5055700;28;20433;-56
2022/02/24 01:49:38;;;;;;;3.88;2.17;;;;;;;;;;5057575;28;20028;-56
2022/02/24 01:52:06;;;;;;;5.25;2.42;;;;;;;;;;5065345;28;20036;-57
2022/02/24 01:54:33;;;;;;;5.43;2.10;;;;;;;;;;5062316;28;20033;-56
2022/02/24 01:56:59;;;;;;;5.88;2.10;;;;;;;;;;5064145;28;20024;-56
2022/02/24 01:59:25;;;;;;;4.43;2.22;;;;;;;;;;5054287;28;20036;-54
2022/02/24 02:01:51;;;;;;;5.18;2.05;;;;;;;;;;5052980;28;20104;-56
2022/02/24 02:04:17;;;;;;;3.38;2.17;;;;;;;;;;5059234;28;20542;-56
2022/02/24 02:06:42;;;;;;;5.35;2.40;;;;;;;;;;5057121;28;20025;-56
2022/02/24 02:09:09;;;;;;;4.40;2.25;;;;;;;;;;5058112;28;20036;-56
2022/02/24 02:11:35;;;;;;;3.97;2.20;;;;;;;;;;5057665;28;20049;-55
2022/02/24 02:14:00;;;;;;;5.63;2.83;;;;;;;;;;5064961;28;20056;-56
2022/02/24 02:16:26;;;;;;;5.03;2.67;;;;;;;;;;5058337;28;20130;-56
2022/02/24 02:18:51;;;;;;;3.08;2.10;;;;;;;;;;5065092;28;20028;-56
2022/02/24 02:21:17;;;;;;;3.63;2.28;;;;;;;;;;5058409;28;20055;-55
2022/02/24 02:23:42;;;;;;;4.80;2.50;;;;;;;;;;5058725;28;20093;-55
2022/02/24 02:26:08;;;;;;;3.13;2.30;;;;;;;;;;5067166;28;20020;-56
2022/02/24 02:28:34;;;;;;;7.68;2.35;;;;;;;;;;5067127;28;20028;-56
2022/02/24 02:31:00;;;;;;;7.35;2.13;;;;;;;;;;5067066;28;20069;-56
2022/02/24 02:33:25;;;;;;;3.70;2.20;;;;;;;;;;5062714;28;20028;-56
2022/02/24 02:35:51;;;;;;;3.20;2.28;;;;;;;;;;5065409;28;20024;-56
2022/02/24 02:38:16;;;;;;;4.55;2.50;;;;;;;;;;5052305;28;20035;-56
2022/02/24 02:40:42;;;;;;;4.22;2.15;;;;;;;;;;5061607;28;20533;-57
2022/02/24 02:43:08;;;;;;;4.03;2.10;;;;;;;;;;5057293;28;20055;-55
2022/02/24 02:45:35;;;;;;;4.63;2.28;;;;;;;;;;5063412;28;20545;-56
2022/02/24 02:48:01;;;;;;;3.25;2.20;;;;;;;;;;5061254;28;20479;-55
2022/02/24 02:50:30;;;;;;;4.10;1.90;;;;;;;;;;5061826;28;20032;-55
2022/02/24 02:52:56;;;;;;;4.75;2.40;;;;;;;;;;5061088;28;20024;-56
2022/02/24 02:55:21;;;;;;;5.20;2.05;;;;;;;;;;5059861;28;20052;-56
2022/02/24 02:57:47;;;;;;;5.45;2.70;;;;;;;;;;5060195;28;20093;-56
2022/02/24 03:00:15;;;;;;;4.57;2.67;;;;;;;;;;5062582;28;20024;-56
2022/02/24 03:02:41;;;;;;;5.93;3.33;;;;;;;;;;5057884;28;20484;-56
2022/02/24 03:05:08;;;;;;;5.82;2.88;;;;;;;;;;5061035;28;20032;-56
2022/02/24 03:07:33;;;;;;;4.85;2.83;;;;;;;;;;5056824;28;20033;-56
2022/02/24 03:09:59;;;;;;;4.18;2.50;;;;;;;;;;5058083;28;20078;-56
2022/02/24 03:12:24;;;;;;;5.40;2.70;;;;;;;;;;5060420;28;20090;-56
2022/02/24 03:14:50;;;;;;;4.43;2.70;;;;;;;;;;5063917;28;20034;-56
2022/02/24 03:17:16;;;;;;;8.35;3.22;;;;;;;;;;5059818;28;20416;-55
2022/02/24 03:19:41;;;;;;;5.03;2.42;;;;;;;;;;5059125;28;20059;-55
2022/02/24 03:22:09;;;;;;;3.13;2.05;;;;;;;;;;5057849;28;20425;-56
2022/02/24 03:24:34;;;;;;;3.85;2.42;;;;;;;;;;5060213;28;20071;-54
2022/02/24 03:27:00;;;;;;;5.10;2.63;;;;;;;;;;5065534;28;20427;-56
2022/02/24 03:29:25;;;;;;;12.32;5.97;;;;;;;;;;5061532;28;20032;-57
2022/02/24 03:31:50;;;;;;;9.50;5.32;;;;;;;;;;5060326;28;20032;-56
2022/02/24 03:34:16;;;;;;;12.25;5.55;;;;;;;;;;5061153;28;20048;-57
2022/02/24 03:36:41;;;;;;;9.25;4.03;;;;;;;;;;5055702;28;20081;-55
2022/02/24 03:39:07;;;;;;;8.00;4.35;;;;;;;;;;5057575;28;20407;-56
2022/02/24 03:41:33;;;;;;;9.23;5.25;;;;;;;;;;5064530;28;20742;-56
2022/02/24 03:43:58;;;;;;;12.38;5.80;;;;;;;;;;5059503;28;20047;-57
2022/02/24 03:46:23;;;;;;;7.68;3.33;;;;;;;;;;5063672;28;20169;-55
2022/02/24 03:48:49;;;;;;;3.90;2.38;;;;;;;;;;5062824;28;20037;-55
2022/02/24 03:51:16;;;;;;;3.67;2.20;;;;;;;;;;5061433;28;20020;-56
2022/02/24 03:53:41;;;;;;;4.38;2.22;;;;;;;;;;5064504;28;20383;-55
2022/02/24 03:56:07;;;;;;;5.43;2.60;;;;;;;;;;5059167;28;20041;-56
2022/02/24 03:58:32;;;;;;;3.45;2.50;;;;;;;;;;5053230;28;20029;-55
2022/02/24 04:00:58;;;;;;;4.82;2.20;;;;;;;;;;5054302;28;20526;-56
2022/02/24 04:03:23;;;;;;;5.35;2.53;;;;;;;;;;5056862;28;20032;-55
2022/02/24 04:05:49;;;;;;;3.20;2.20;;;;;;;;;;5060408;28;20433;-57
2022/02/24 04:08:14;;;;;;;7.97;2.47;;;;;;;;;;5057850;28;20094;-56
2022/02/24 04:10:40;;;;;;;8.23;3.25;;;;;;;;;;5061415;28;20025;-56
2022/02/24 04:13:05;;;;;;;10.10;4.43;;;;;;;;;;5060074;28;20123;-56
2022/02/24 04:15:31;;;;;;;11.15;5.72;;;;;;;;;;5051021;28;20408;-56
2022/02/24 04:17:56;;;;;;;16.63;7.88;;;;;;;;;;5056414;28;20031;-56
2022/02/24 04:20:22;;;;;;;18.88;9.32;;;;;;;;;;5061868;28;20032;-56
2022/02/24 04:22:47;;;;;;;19.27;8.88;;;;;;;;;;5059356;28;20030;-55
2022/02/24 04:25:13;;;;;;;16.67;9.27;;;;;;;;;;5060358;28;20074;-55
2022/02/24 04:27:49;;;;;;;16.52;8.65;;;;;;;;;;5053770;28;20029;-56
2022/02/24 04:30:16;;;;;;;15.30;8.18;;;;;;;;;;5061390;28;20074;-56
2022/02/24 04:32:42;;;;;;;18.52;8.23;;;;;;;;;;5056859;28;20429;-56
2022/02/24 04:35:09;;;;;;;18.85;8.55;;;;;;;;;;5063994;28;20452;-56
2022/02/24 04:37:35;;;;;;;17.65;8.60;;;;;;;;;;5061852;28;20023;-56
2022/02/24 04:40:01;;;;;;;15.75;7.43;;;;;;;;;;5053733;28;20388;-56
2022/02/24 04:42:26;;;;;;;21.73;8.25;;;;;;;;;;5060974;28;20111;-55
2022/02/24 04:44:51;;;;;;;15.25;7.00;;;;;;;;;;5053640;28;20025;-57
2022/02/24 04:47:17;;;;;;;16.10;6.20;;;;;;;;;;5063583;28;20393;-57
2022/02/24 04:49:42;;;;;;;13.43;6.25;;;;;;;;;;5052460;28;20459;-56
2022/02/24 04:52:08;;;;;;;10.10;5.40;;;;;;;;;;5059981;28;20025;-55
2022/02/24 04:54:33;;;;;;;11.93;6.10;;;;;;;;;;5062832;28;20029;-57
2022/02/24 04:56:59;;;;;;;20.67;8.73;;;;;;;;;;5065217;28;20123;-56
2022/02/24 04:59:24;;;;;;;17.95;8.25;;;;;;;;;;5056818;28;20028;-55
2022/02/24 05:01:50;;;;;;;12.15;6.97;;;;;;;;;;5056387;28;20113;-57
2022/02/24 05:04:16;;;;;;;14.02;5.82;;;;;;;;;;5059091;28;20107;-57
2022/02/24 05:06:42;;;;;;;14.60;5.90;;;;;;;;;;5055209;28;20038;-57
2022/02/24 05:09:08;;;;;;;11.70;5.40;;;;;;;;;;5061625;28;20024;-57
2022/02/24 05:11:34;;;;;;;9.70;4.95;;;;;;;;;;5055730;28;20515;-56
2022/02/24 05:13:59;;;;;;;8.75;3.63;;;;;;;;;;5056578;28;20021;-56
2022/02/24 05:16:24;;;;;;;7.45;3.88;;;;;;;;;;5063240;28;20349;-56
2022/02/24 05:18:50;;;;;;;4.90;2.97;;;;;;;;;;5059292;28;20027;-56
2022/02/24 05:21:17;;;;;;;11.98;5.18;;;;;;;;;;5056330;28;20445;-56
2022/02/24 05:23:42;;;;;;;10.32;3.97;;;;;;;;;;5055304;28;20120;-56
2022/02/24 05:26:08;;;;;;;10.55;4.88;;;;;;;;;;5062024;28;20047;-57
2022/02/24 05:28:33;;;;;;;10.73;4.18;;;;;;;;;;5060014;28;20138;-55
2022/02/24 05:30:59;;;;;;;7.15;4.00;;;;;;;;;;5064166;28;20116;-55
2022/02/24 05:33:26;;;;;;;9.80;3.92;;;;;;;;;;5062705;28;20065;-55
2022/02/24 05:35:52;;;;;;;8.10;3.53;;;;;;;;;;5061639;28;20027;-58
2022/02/24 05:38:17;;;;;;;5.93;3.67;;;;;;;;;;5061112;28;20028;-56
2022/02/24 05:40:43;;;;;;;8.40;3.95;;;;;;;;;;5055083;28;20400;-56
2022/02/24 05:43:08;;;;;;;6.40;3.92;;;;;;;;;;5054699;28;20036;-55
2022/02/24 05:45:33;;;;;;;11.23;4.97;;;;;;;;;;5053203;28;20123;-56
2022/02/24 05:47:59;;;;;;;7.15;4.00;;;;;;;;;;5051502;28;20160;-56
2022/02/24 05:50:24;;;;;;;7.93;4.43;;;;;;;;;;5060817;28;20101;-54
2022/02/24 05:52:50;;;;;;;10.20;5.05;;;;;;;;;;5055735;28;20029;-54
2022/02/24 05:55:15;;;;;;;10.30;4.28;;;;;;;;;;5064088;28;20097;-57
2022/02/24 05:57:44;;;;;;;9.55;4.88;;;;;;;;;;5069089;28;20052;-48
2022/02/24 06:00:11;;;;;;;8.05;4.35;;;;;;;;;;5061580;28;20029;-50
2022/02/24 06:02:37;;;;;;;10.20;4.30;;;;;;;;;;5060653;28;20028;-55
2022/02/24 06:05:03;;;;;;;13.63;4.63;;;;;;;;;;5056259;28;20028;-57
2022/02/24 06:07:28;;;;;;;11.25;4.88;;;;;;;;;;5054552;28;20523;-56
2022/02/24 06:09:53;;;;;;;15.57;5.03;;;;;;;;;;5060490;28;20394;-57
2022/02/24 06:12:19;;;;;;;9.48;4.47;;;;;;;;;;5058065;28;20572;-56
2022/02/24 06:14:44;;;;;;;11.02;4.45;;;;;;;;;;5052699;28;20504;-56
2022/02/24 06:17:10;;;;;;;9.63;4.70;;;;;;;;;;5052282;28;20025;-56
2022/02/24 06:19:35;;;;;;;10.65;4.75;;;;;;;;;;5052009;28;20025;-57
2022/02/24 06:22:01;;;;;;;9.07;4.25;;;;;;;;;;5053980;28;20025;-57
2022/02/24 06:24:26;;;;;;;7.85;4.50;;;;;;;;;;5053686;28;20045;-56
2022/02/24 06:26:52;;;;;;;8.50;4.80;;;;;;;;;;5055528;28;20021;-56
2022/02/24 06:29:17;;;;;;;9.82;4.40;;;;;;;;;;5051967;28;20063;-56
2022/02/24 06:31:43;;;;;;;11.82;4.93;;;;;;;;;;5056016;28;20032;-57
2022/02/24 06:34:08;;;;;;;15.00;4.30;;;;;;;;;;5060516;28;20063;-56
2022/02/24 06:36:33;;;;;;;12.38;4.70;;;;;;;;;;5056453;28;20021;-56
2022/02/24 06:38:59;;;;;;;5.97;4.18;;;;;;;;;;5049415;28;20028;-56
2022/02/24 06:41:25;;;;;;;9.55;4.60;;;;;;;;;;5051302;28;20028;-56
2022/02/24 06:43:51;;;;;;;10.98;4.55;;;;;;;;;;5056818;28;20028;-56
2022/02/24 06:46:19;;;;;;;11.40;4.60;;;;;;;;;;5053742;28;20039;-57
2022/02/24 06:48:46;;;;;;;10.88;4.00;;;;;;;;;;5050782;28;20039;-55
2022/02/24 06:51:12;;;;;;;8.65;4.35;;;;;;;;;;5053868;28;20090;-56
2022/02/24 06:53:37;;;;;;;9.38;3.85;;;;;;;;;;5049975;28;20024;-56
2022/02/24 06:56:03;;;;;;;8.98;3.97;;;;;;;;;;5051595;28;20049;-56
2022/02/24 06:58:28;;;;;;;11.10;4.25;;;;;;;;;;5052727;28;20040;-57
2022/02/24 07:00:54;;;;;;;7.65;4.05;;;;;;;;;;5049109;28;20036;-57
2022/02/24 07:03:19;;;;;;;5.47;3.40;;;;;;;;;;5048662;28;20433;-56
2022/02/24 07:05:45;;;;;;;7.50;3.80;;;;;;;;;;5050798;28;20024;-58
2022/02/24 07:08:10;;;;;;;7.47;3.60;;;;;;;;;;5056356;28;20032;-56
2022/02/24 07:10:36;;;;;;;9.63;4.10;;;;;;;;;;5052028;28;20047;-55
2022/02/24 07:13:01;;;;;;;7.82;3.65;;;;;;;;;;5057980;28;20039;-55
2022/02/24 07:15:27;;;;;;;7.95;4.13;;;;;;;;;;5058209;28;20032;-56
2022/02/24 07:17:52;;;;;;;6.30;3.60;;;;;;;;;;5051995;28;20024;-56
2022/02/24 07:20:19;;;;;;;5.55;3.45;;;;;;;;;;5050476;28;20020;-56
2022/02/24 07:22:44;;;;;;;8.20;3.75;;;;;;;;;;5052360;28;20032;-56
2022/02/24 07:25:14;;;;;;;8.45;3.65;;;;;;;;;;5055802;28;20388;-56
2022/02/24 07:27:41;;;;;;;10.00;5.78;;;;;;;;;;5047980;28;20093;-56
2022/02/24 07:30:07;;;;;;;29.35;12.77;;;;;;;;;;5054072;28;20033;-56
2022/02/24 07:32:34;;;;;;;52.38;23.20;;;;;;;;;;5052640;28;20032;-56
2022/02/24 07:35:00;;;;;;;57.75;25.33;;;;;;;;;;5055260;28;20028;-56
2022/02/24 07:37:26;;;;;;;56.67;24.02;;;;;;;;;;5050278;28;20016;-56
2022/02/24 07:39:51;;;;;;;54.42;23.83;;;;;;;;;;5051260;28;20039;-56
2022/02/24 07:42:17;;;;;;;49.22;23.65;;;;;;;;;;5060371;28;20032;-56
2022/02/24 07:44:46;;;;;;;52.60;23.95;;;;;;;;;;5055701;28;20078;-57
2022/02/24 07:47:13;;;;;;;45.47;20.80;;;;;;;;;;5051421;28;20776;-56
2022/02/24 07:49:38;;;;;;;9.00;4.80;;;;;;;;;;5052503;28;20571;-55
2022/02/24 07:52:06;;;;;;;8.65;3.30;;;;;;;;;;5052793;28;20127;-56
2022/02/24 07:54:32;;;;;;;6.78;2.55;;;;;;;;;;5054297;28;20025;-56
2022/02/24 07:56:57;;;;;;;7.95;2.97;;;;;;;;;;5051681;28;20036;-56
2022/02/24 07:59:23;;;;;;;5.28;2.10;;;;;;;;;;5052701;28;20025;-56
2022/02/24 08:01:48;;;;;;;6.68;2.45;;;;;;;;;;5062513;28;20105;-56
2022/02/24 08:04:15;;;;;;;3.90;2.10;;;;;;;;;;5059215;28;20075;-56
2022/02/24 08:06:41;;;;;;;7.20;2.70;;;;;;;;;;5052268;28;20028;-56
2022/02/24 08:09:07;;;;;;;3.92;2.42;;;;;;;;;;5050303;28;20033;-56
2022/02/24 08:11:33;;;;;;;4.72;2.28;;;;;;;;;;5052311;28;20028;-57
2022/02/24 08:13:59;;;;;;;5.28;2.33;;;;;;;;;;5059550;28;20032;-56
2022/02/24 08:16:24;;;;;;;6.07;2.17;;;;;;;;;;5048842;28;20119;-57
2022/02/24 08:18:50;;;;;;;5.38;2.50;;;;;;;;;;5058853;28;20372;-56
2022/02/24 08:21:15;;;;;;;4.13;1.95;;;;;;;;;;5055282;28;20032;-57
2022/02/24 08:23:42;;;;;;;7.20;2.72;;;;;;;;;;5063757;28;20036;-56
2022/02/24 08:26:07;;;;;;;7.03;2.30;;;;;;;;;;5059281;28;20218;-57
2022/02/24 08:28:33;;;;;;;5.90;2.45;;;;;;;;;;5058667;28;20488;-57
2022/02/24 08:30:58;;;;;;;4.28;2.22;;;;;;;;;;5056448;28;20036;-56
2022/02/24 08:33:24;;;;;;;7.82;2.85;;;;;;;;;;5059436;28;20021;-56
2022/02/24 08:35:50;;;;;;;6.88;3.10;;;;;;;;;;5061556;28;20460;-56
2022/02/24 08:38:15;;;;;;;8.80;3.72;;;;;;;;;;5055928;28;20021;-56
2022/02/24 08:40:41;;;;;;;7.18;3.00;;;;;;;;;;5059803;28;20463;-57
2022/02/24 08:43:06;;;;;;;6.32;2.92;;;;;;;;;;5063125;28;20399;-56
2022/02/24 08:45:34;;;;;;;6.10;3.13;;;;;;;;;;5059093;28;20029;-56
2022/02/24 08:48:00;;;;;;;12.45;3.53;;;;;;;;;;5056749;28;20028;-56
2022/02/24 08:50:25;;;;;;;11.65;3.35;;;;;;;;;;5056307;28;20037;-57
2022/02/24 08:52:51;;;;;;;5.57;2.90;;;;;;;;;;5061340;28;20037;-57
2022/02/24 08:55:16;;;;;;;8.95;3.28;;;;;;;;;;5055330;28;20441;-57
2022/02/24 08:57:42;;;;;;;6.28;2.92;;;;;;;;;;5051865;28;20022;-57
2022/02/24 09:00:08;;;;;;;5.18;2.90;;;;;;;;;;5061479;28;20148;-56
2022/02/24 09:02:34;;;;;;;4.55;2.80;;;;;;;;;;5054808;28;20513;-57
2022/02/24 09:05:00;;;;;;;4.57;2.67;;;;;;;;;;5052954;28;20055;-57
2022/02/24 09:07:26;;;;;;;5.22;2.53;;;;;;;;;;5055385;28;20063;-57
2022/02/24 09:09:52;;;;;;;6.50;3.22;;;;;;;;;;5058295;28;22327;-56
2022/02/24 09:12:17;;;;;;;5.20;2.63;;;;;;;;;;5057804;28;20027;-56
2022/02/24 09:14:43;;;;;;;5.60;2.80;;;;;;;;;;5058270;28;20181;-56
2022/02/24 09:17:10;;;;;;;5.90;2.97;;;;;;;;;;5056305;28;20035;-57
2022/02/24 09:19:39;;;;;;;5.63;2.33;;;;;;;;;;5062541;28;20506;-57
2022/02/24 09:22:06;;;;;;;7.55;3.17;;;;;;;;;;5055794;28;20037;-58
2022/02/24 09:24:33;;;;;;;5.88;2.90;;;;;;;;;;5054210;28;20032;-58
2022/02/24 09:26:58;;;;;;;4.32;2.83;;;;;;;;;;5052008;28;20056;-57
2022/02/24 09:29:24;;;;;;;7.13;2.85;;;;;;;;;;5052052;28;20053;-58
2022/02/24 09:31:49;;;;;;;5.50;2.63;;;;;;;;;;5051535;28;20135;-57
2022/02/24 09:34:16;;;;;;;3.60;2.47;;;;;;;;;;5054198;28;20090;-58
2022/02/24 09:36:42;;;;;;;5.18;2.80;;;;;;;;;;5055156;28;20056;-58
2022/02/24 09:39:08;;;;;;;11.73;3.42;;;;;;;;;;5058337;28;20385;-58
2022/02/24 09:41:34;;;;;;;5.32;2.60;;;;;;;;;;5063258;28;20032;-58
2022/02/24 09:44:00;;;;;;;5.10;2.65;;;;;;;;;;5067758;28;20043;-58
2022/02/24 09:46:27;;;;;;;6.75;2.40;;;;;;;;;;5055423;28;20051;-59
2022/02/24 09:48:53;;;;;;;5.63;2.72;;;;;;;;;;5054207;28;20238;-56
2022/02/24 09:51:19;;;;;;;11.50;4.30;;;;;;;;;;5050514;28;20078;-56
2022/02/24 09:53:47;;;;;;;6.07;2.55;;;;;;;;;;5054310;28;20419;-57
2022/02/24 09:56:14;;;;;;;4.00;2.70;;;;;;;;;;5059025;28;20490;-57
2022/02/24 09:58:40;;;;;;;5.07;2.40;;;;;;;;;;5050849;28;20415;-56
2022/02/24 10:01:08;;;;;;;4.35;2.60;;;;;;;;;;5052802;28;20024;-57
2022/02/24 10:03:37;;;;;;;5.60;2.97;;;;;;;;;;5053252;28;20033;-57
2022/02/24 10:06:04;;;;;;;9.52;2.92;;;;;;;;;;5052779;28;20417;-58
2022/02/24 10:08:36;;;;;;;6.07;2.85;;;;;;;;;;5054861;28;20043;-58
2022/02/24 10:11:14;;;;;;;6.78;3.00;;;;;;;;;;5051356;28;20056;-58
2022/02/24 10:13:39;;;;;;;4.30;2.58;;;;;;;;;;5053286;28;20075;-58
2022/02/24 10:16:05;;;;;;;6.18;2.70;;;;;;;;;;5052538;28;20447;-58
2022/02/24 10:18:33;;;;;;;4.05;2.22;;;;;;;;;;5050447;28;20021;-57
2022/02/24 10:21:03;;;;;;;4.53;2.85;;;;;;;;;;5051368;28;20032;-58
2022/02/24 10:23:40;;;;;;;5.47;2.28;;;;;;;;;;5053188;28;20322;-58
2022/02/24 10:26:06;;;;;;;7.20;2.30;;;;;;;;;;5051939;28;20086;-58
2022/02/24 10:28:40;;;;;;;2.85;2.00;;;;;;;;;;5052681;28;20029;-58
2022/02/24 10:31:14;;;;;;;6.13;2.60;;;;;;;;;;5050187;28;20470;-58
2022/02/24 10:33:45;;;;;;;7.38;2.67;;;;;;;;;;5053685;28;20487;-58
2022/02/24 10:36:18;;;;;;;5.78;2.70;;;;;;;;;;5053294;28;20033;-58
2022/02/24 10:38:56;;;;;;;5.35;2.92;;;;;;;;;;5052021;28;20558;-58
2022/02/24 10:41:49;;;;;;;6.15;2.10;;;;;;;;;;5053198;28;20119;-58
2022/02/24 10:44:26;;;;;;;4.55;1.95;;;;;;;;;;5052442;28;20044;-58
2022/02/24 10:47:12;;;;;;;6.10;2.38;;;;;;;;;;5048954;28;20025;-58
2022/02/24 10:49:41;;;;;;;11.05;3.20;;;;;;;;;;5048566;28;20044;-57
2022/02/24 10:52:13;;;;;;;3.97;2.05;;;;;;;;;;5053986;28;20166;-57
2022/02/24 10:54:39;;;;;;;4.72;2.08;;;;;;;;;;5053298;28;20032;-58
2022/02/24 10:57:21;;;;;;;4.10;2.10;;;;;;;;;;5052794;28;20036;-58
2022/02/24 10:59:50;;;;;;;4.55;2.30;;;;;;;;;;5051945;28;20025;-57
2022/02/24 11:02:15;;;;;;;3.17;1.90;;;;;;;;;;5059029;28;20507;-58
2022/02/24 11:04:42;;;;;;;4.07;2.05;;;;;;;;;;5054780;28;20032;-57
2022/02/24 11:07:08;;;;;;;5.60;1.92;;;;;;;;;;5056742;28;20025;-58
2022/02/24 11:09:37;;;;;;;4.35;2.20;;;;;;;;;;5052998;28;20103;-57
2022/02/24 11:12:12;;;;;;;7.70;2.17;;;;;;;;;;5057002;28;21304;-59
2022/02/24 11:14:40;;;;;;;4.25;1.90;;;;;;;;;;5049031;28;20033;-58
2022/02/24 11:17:08;;;;;;;5.07;2.03;;;;;;;;;;5050644;28;20412;-58
2022/02/24 11:19:35;;;;;;;4.20;1.73;;;;;;;;;;5048928;28;20029;-58
2022/02/24 11:22:02;;;;;;;6.50;2.30;;;;;;;;;;5055266;28;20020;-58
2022/02/24 11:24:28;;;;;;;3.25;1.90;;;;;;;;;;5054165;28;20085;-58
2022/02/24 11:27:01;;;;;;;5.55;2.00;;;;;;;;;;5054176;28;20029;-57
2022/02/24 11:29:35;;;;;;;2.90;1.90;;;;;;;;;;5055271;28;20029;-58
2022/02/24 11:32:03;;;;;;;5.20;2.25;;;;;;;;;;5054703;28;20020;-58
2022/02/24 11:34:54;;;;;;;4.05;2.25;;;;;;;;;;5055474;28;20131;-58
2022/02/24 11:37:27;;;;;;;5.00;1.70;;;;;;;;;;5054746;28;20044;-58
2022/02/24 11:39:58;;;;;;;3.60;1.73;;;;;;;;;;5050144;28;20021;-58
2022/02/24 11:42:25;;;;;;;4.78;1.58;;;;;;;;;;5052533;28;20020;-58
2022/02/24 11:44:51;;;;;;;2.50;1.42;;;;;;;;;;5053566;28;20036;-57
2022/02/24 11:47:17;;;;;;;5.28;1.85;;;;;;;;;;5057972;28;20155;-57
2022/02/24 11:50:07;;;;;;;3.53;1.70;;;;;;;;;;5050766;28;20030;-57
2022/02/24 11:52:45;;;;;;;5.68;2.00;;;;;;;;;;5055073;28;20071;-58
2022/02/24 11:55:46;;;;;;;2.80;1.42;;;;;;;;;;5063406;28;20035;-58
2022/02/24 11:58:30;;;;;;;3.88;1.75;;;;;;;;;;5050050;28;20098;-59
2022/02/24 12:01:26;;;;;;;4.63;1.85;;;;;;;;;;5048176;28;20028;-58
2022/02/24 12:03:58;;;;;;;6.90;1.92;;;;;;;;;;5050461;28;20120;-59
2022/02/24 12:06:38;;;;;;;4.40;1.70;;;;;;;;;;5055956;28;20107;-59
2022/02/24 12:09:05;;;;;;;4.38;1.70;;;;;;;;;;5052532;28;20142;-59
2022/02/24 12:11:34;;;;;;;3.70;1.95;;;;;;;;;;5059996;28;20044;-59
2022/02/24 12:13:59;;;;;;;6.47;2.03;;;;;;;;;;5062270;28;20056;-59
2022/02/24 12:16:25;;;;;;;3.88;1.85;;;;;;;;;;5054894;28;20056;-59
2022/02/24 12:18:56;;;;;;;3.33;1.80;;;;;;;;;;5063078;28;20024;-59
2022/02/24 12:22:07;;;;;;;4.63;1.70;;;;;;;;;;5059432;28;20024;-59
2022/02/24 12:24:33;;;;;;;7.68;1.83;;;;;;;;;;5060393;28;20056;-60
2022/02/24 12:27:38;;;;;;;5.07;2.15;;;;;;;;;;5056520;28;20052;-59
2022/02/24 12:30:13;;;;;;;3.33;1.67;;;;;;;;;;5053834;28;20021;-59
2022/02/24 12:32:47;;;;;;;6.50;2.08;;;;;;;;;;5046915;28;20036;-59
2022/02/24 12:35:15;;;;;;;4.07;1.85;;;;;;;;;;5051654;28;20047;-58
2022/02/24 12:37:42;;;;;;;16.75;6.18;;;;;;;;;;5049382;28;20518;-59
2022/02/24 12:40:10;;;;;;;7.32;2.20;;;;;;;;;;5052746;28;20372;-59
2022/02/24 12:42:35;;;;;;;7.88;2.20;;;;;;;;;;5052341;28;20499;-59
2022/02/24 12:45:01;;;;;;;4.80;2.10;;;;;;;;;;5053974;28;20036;-59
2022/02/24 12:47:28;;;;;;;18.30;8.50;;;;;;;;;;5051097;28;20399;-59
2022/02/24 12:49:57;;;;;;;8.82;1.80;;;;;;;;;;5050025;28;20036;-58
2022/02/24 12:52:29;;;;;;;8.57;3.35;;;;;;;;;;5048362;28;20033;-58
2022/02/24 12:54:56;;;;;;;5.15;3.03;;;;;;;;;;5054210;28;20029;-59
2022/02/24 12:57:24;;;;;;;11.80;6.18;;;;;;;;;;5056892;28;20116;-58
2022/02/24 12:59:49;;;;;;;5.47;2.45;;;;;;;;;;5053152;28;20036;-58
2022/02/24 13:02:15;;;;;;;9.38;3.05;;;;;;;;;;5054869;28;20028;-58
2022/02/24 13:04:41;;;;;;;5.07;2.60;;;;;;;;;;5057134;28;20028;-58
2022/02/24 13:07:07;;;;;;;5.05;2.08;;;;;;;;;;5055532;28;20055;-58
2022/02/24 13:09:46;;;;;;;12.13;4.00;;;;;;;;;;5048740;28;20108;-59
2022/02/24 13:12:15;;;;;;;7.22;1.88;;;;;;;;;;5056934;28;20036;-59
2022/02/24 13:14:46;;;;;;;13.40;5.25;;;;;;;;;;5056703;28;20356;-59
2022/02/24 13:17:22;;;;;;;11.30;2.63;;;;;;;;;;5058412;28;20020;-59
2022/02/24 13:19:47;;;;;;;8.52;2.38;;;;;;;;;;5057106;28;20524;-59
2022/02/24 13:22:12;;;;;;;17.85;7.60;;;;;;;;;;5050201;28;20024;-59
2022/02/24 13:24:41;;;;;;;7.88;4.00;;;;;;;;;;5053264;28;20021;-58
2022/02/24 13:27:09;;;;;;;5.53;2.17;;;;;;;;;;5053975;28;20549;-59
2022/02/24 13:29:39;;;;;;;11.90;6.32;;;;;;;;;;5053764;28;20518;-58
2022/02/24 13:32:27;;;;;;;8.90;3.75;;;;;;;;;;5057227;28;20362;-58
2022/02/24 13:34:57;;;;;;;4.47;2.58;;;;;;;;;;5058868;28;20036;-58
2022/02/24 13:37:40;;;;;;;5.57;2.00;;;;;;;;;;5061026;28;20129;-58
2022/02/24 13:40:12;;;;;;;5.35;2.20;;;;;;;;;;5060714;28;20055;-58
2022/02/24 13:42:39;;;;;;;6.25;2.17;;;;;;;;;;5058976;28;20032;-57
2022/02/24 13:45:17;;;;;;;7.55;1.98;;;;;;;;;;5064411;28;20040;-57
2022/02/24 13:48:07;;;;;;;5.93;2.00;;;;;;;;;;5060452;28;20062;-57
2022/02/24 13:50:45;;;;;;;8.98;1.98;;;;;;;;;;5056487;28;20082;-57
2022/02/24 13:53:23;;;;;;;5.35;2.38;;;;;;;;;;5058034;28;20025;-57
2022/02/24 13:55:55;;;;;;;7.18;2.30;;;;;;;;;;5052278;28;20495;-58
2022/02/24 13:58:33;;;;;;;6.57;1.88;;;;;;;;;;5054987;28;20581;-57
2022/02/24 14:01:21;;;;;;;6.72;2.22;;;;;;;;;;5056275;28;20383;-58
2022/02/24 14:03:51;;;;;;;6.55;2.90;;;;;;;;;;5057716;28;20021;-57
2022/02/24 14:06:18;;;;;;;8.02;3.13;;;;;;;;;;5065863;28;20503;-59
2022/02/24 14:08:54;;;;;;;9.60;2.35;;;;;;;;;;5057504;28;20117;-59
2022/02/24 14:11:33;;;;;;;7.03;2.40;;;;;;;;;;5059288;28;20024;-59
2022/02/24 14:14:01;;;;;;;10.45;2.67;;;;;;;;;;5060897;28;20031;-58
2022/02/24 14:16:27;;;;;;;7.03;2.30;;;;;;;;;;5054768;28;20516;-59
2022/02/24 14:18:53;;;;;;;5.90;2.25;;;;;;;;;;5058899;28;20803;-58
2022/02/24 14:21:19;;;;;;;6.75;2.47;;;;;;;;;;5061736;28;20168;-58
2022/02/24 14:23:45;;;;;;;4.90;2.42;;;;;;;;;;5064562;28;20036;-58
2022/02/24 14:26:11;;;;;;;6.07;2.65;;;;;;;;;;5063397;28;20025;-57
2022/02/24 14:28:38;;;;;;;5.75;2.35;;;;;;;;;;5059866;28;20021;-58
2022/02/24 14:31:05;;;;;;;5.20;1.95;;;;;;;;;;5062954;28;20028;-57
2022/02/24 14:33:31;;;;;;;6.57;2.22;;;;;;;;;;5052106;28;20206;-57
2022/02/24 14:35:56;;;;;;;8.50;2.50;;;;;;;;;;5058945;28;20072;-57
2022/02/24 14:38:22;;;;;;;8.65;2.00;;;;;;;;;;5061310;28;20103;-58
2022/02/24 14:40:48;;;;;;;6.53;2.10;;;;;;;;;;5058003;28;20675;-57
2022/02/24 14:43:16;;;;;;;8.20;3.00;;;;;;;;;;5052079;28;20076;-57